createdAt,value
2022-09-05T00:00:29.575Z,72.86376953
2022-09-05T00:01:30.016Z,73.06518555
2022-09-05T00:02:30.560Z,72.9675293
2022-09-05T00:03:31.269Z,73.06518555
2022-09-05T00:04:31.358Z,72.56469727
2022-09-05T00:05:32.406Z,72.66235352
2022-09-05T00:06:33.485Z,72.76611328
2022-09-05T00:08:04.460Z,72.86376953
2022-09-05T00:09:05.404Z,72.56469727
2022-09-05T00:10:05.896Z,72.66235352
2022-09-05T00:11:22.341Z,72.76611328
2022-09-05T00:12:06.723Z,72.86376953
2022-09-05T00:13:08.136Z,73.06518555
2022-09-05T00:14:07.549Z,73.1628418
2022-09-05T00:15:17.537Z,72.86376953
2022-09-05T00:16:08.943Z,72.9675293
2022-09-05T00:17:09.377Z,73.06518555
2022-09-05T00:21:10.483Z,72.86376953
2022-09-05T00:22:55.606Z,72.76611328
2022-09-05T00:24:20.720Z,72.86376953
2022-09-05T00:24:29.218Z,72.66235352
2022-09-05T00:24:30.626Z,72.86376953
2022-09-05T00:24:35.545Z,72.76611328
2022-09-05T00:24:36.407Z,72.86376953
2022-09-05T00:25:30.614Z,72.9675293
2022-09-05T00:26:15.408Z,72.9675293
2022-09-05T00:27:15.853Z,72.9675293
2022-09-05T00:28:25.638Z,72.9675293
2022-09-05T00:29:16.734Z,72.86376953
2022-09-05T00:31:50.747Z,72.66235352
2022-09-05T00:31:55.990Z,72.60131836
2022-09-05T00:32:18.135Z,72.79663086
2022-09-05T00:33:18.500Z,72.79663086
2022-09-05T00:34:18.930Z,72.79663086
2022-09-05T00:35:19.344Z,72.90039063
2022-09-05T00:36:20.434Z,72.79663086
2022-09-05T00:37:20.914Z,72.69897461
2022-09-05T00:38:23.533Z,72.69897461
2022-09-05T00:39:21.846Z,72.79663086
2022-09-05T00:40:22.239Z,72.90039063
2022-09-05T00:41:22.583Z,73.10180664
2022-09-05T00:42:23.218Z,72.99804688
2022-09-05T00:43:23.689Z,72.90039063
2022-09-05T00:44:24.113Z,72.90039063
2022-09-05T00:45:24.513Z,72.90039063
2022-09-05T00:46:25.934Z,72.99804688
2022-09-05T00:47:26.368Z,72.99804688
2022-09-05T00:48:27.718Z,73.19946289
2022-09-05T00:49:28.154Z,72.99804688
2022-09-05T00:50:28.670Z,73.10180664
2022-09-05T00:51:34.334Z,72.90039063
2022-09-05T00:52:30.136Z,72.69897461
2022-09-05T00:53:30.590Z,72.49755859
2022-09-05T00:54:41.047Z,72.49755859
2022-09-05T00:55:31.506Z,72.39990234
2022-09-05T00:56:32.916Z,72.39990234
2022-09-05T00:58:03.857Z,72.60131836
2022-09-05T00:59:04.269Z,72.60131836
2022-09-05T01:00:04.744Z,72.49755859
2022-09-05T01:01:20.544Z,72.49755859
2022-09-05T01:02:05.702Z,72.49755859
2022-09-05T01:03:06.095Z,72.53417969
2022-09-05T01:04:06.503Z,72.7355957
2022-09-05T01:05:06.930Z,72.7355957
2022-09-05T01:06:08.215Z,72.7355957
2022-09-05T01:07:08.676Z,72.7355957
2022-09-05T01:08:09.091Z,72.39990234
2022-09-05T01:09:09.535Z,72.19848633
2022-09-05T01:10:09.950Z,72.19848633
2022-09-05T01:11:10.359Z,72.19848633
2022-09-05T01:12:10.782Z,72.09472656
2022-09-05T01:13:11.487Z,71.99707031
2022-09-05T01:14:12.898Z,72.09472656
2022-09-05T01:15:12.402Z,72.09472656
2022-09-05T01:16:13.748Z,72.09472656
2022-09-05T01:17:14.108Z,72.09472656
2022-09-05T01:18:14.612Z,72.03369141
2022-09-05T01:19:15.791Z,72.13134766
2022-09-05T01:20:20.115Z,72.33276367
2022-09-05T01:21:15.918Z,72.13134766
2022-09-05T01:22:16.333Z,71.92993164
2022-09-05T01:23:16.765Z,71.92993164
2022-09-05T01:24:17.233Z,72.13134766
2022-09-05T01:25:17.751Z,72.03369141
2022-09-05T01:26:18.727Z,72.13134766
2022-09-05T01:27:19.117Z,72.33276367
2022-09-05T01:29:15.343Z,72.13134766
2022-09-05T01:29:20.160Z,72.13134766
2022-09-05T01:30:20.964Z,72.13134766
2022-09-05T01:31:21.498Z,72.23510742
2022-09-05T01:32:21.897Z,72.13134766
2022-09-05T01:33:22.401Z,72.13134766
2022-09-05T01:34:31.593Z,72.23510742
2022-09-05T01:35:23.272Z,72.43041992
2022-09-05T01:36:24.760Z,72.7355957
2022-09-05T01:37:33.749Z,72.63183594
2022-09-05T01:38:25.603Z,72.56469727
2022-09-05T01:40:12.199Z,72.53417969
2022-09-05T01:40:27.463Z,72.53417969
2022-09-05T01:41:27.879Z,72.7355957
2022-09-05T01:42:28.268Z,72.63183594
2022-09-05T01:43:28.697Z,72.76611328
2022-09-05T01:44:29.264Z,72.7355957
2022-09-05T01:45:39.297Z,72.53417969
2022-09-05T01:46:30.820Z,72.53417969
2022-09-05T01:47:31.406Z,72.63183594
2022-09-05T01:48:31.653Z,72.33276367
2022-09-05T01:49:32.056Z,72.23510742
2022-09-05T01:51:05.327Z,72.16796875
2022-09-05T01:52:04.183Z,72.16796875
2022-09-05T01:53:04.612Z,72.36938477
2022-09-05T01:54:05.064Z,72.56469727
2022-09-05T01:55:05.566Z,72.66845703
2022-09-05T01:56:08.762Z,72.46704102
2022-09-05T01:57:07.495Z,72.56469727
2022-09-05T01:58:07.941Z,72.46704102
2022-09-05T01:59:08.421Z,72.56469727
2022-09-05T02:00:08.888Z,72.56469727
2022-09-05T02:01:27.957Z,72.46704102
2022-09-05T02:02:09.839Z,72.36938477
2022-09-05T02:03:11.603Z,72.33276367
2022-09-05T02:04:11.916Z,72.53417969
2022-09-05T02:05:12.412Z,72.53417969
2022-09-05T02:06:12.873Z,72.43041992
2022-09-05T02:07:19.952Z,72.33276367
2022-09-05T02:08:14.374Z,72.23510742
2022-09-05T02:09:14.832Z,72.03369141
2022-09-05T02:10:15.243Z,71.92993164
2022-09-05T02:11:15.766Z,72.13134766
2022-09-05T02:12:16.313Z,72.33276367
2022-09-05T02:13:16.827Z,72.33276367
2022-09-05T02:14:24.478Z,72.56469727
2022-09-05T02:15:18.499Z,72.66845703
2022-09-05T02:16:18.983Z,72.56469727
2022-09-05T02:17:27.416Z,72.56469727
2022-09-05T02:18:20.382Z,72.56469727
2022-09-05T02:19:20.825Z,72.46704102
2022-09-05T02:20:23.976Z,72.66845703
2022-09-05T02:21:21.769Z,72.76611328
2022-09-05T02:22:22.227Z,72.76611328
2022-09-05T02:23:27.380Z,72.86987305
2022-09-05T02:24:23.918Z,72.76611328
2022-09-05T02:26:01.168Z,72.76611328
2022-09-05T02:26:25.745Z,72.76611328
2022-09-05T02:28:03.466Z,72.66845703
2022-09-05T02:28:26.631Z,72.76611328
2022-09-05T02:29:28.965Z,72.76611328
2022-09-05T02:30:27.571Z,72.66845703
2022-09-05T02:31:28.047Z,72.265625
2022-09-05T02:32:28.456Z,72.46704102
2022-09-05T02:33:28.966Z,72.36938477
2022-09-05T02:34:29.415Z,72.46704102
2022-09-05T02:35:29.804Z,72.56469727
2022-09-05T02:36:31.256Z,72.46704102
2022-09-05T02:39:33.534Z,72.46704102
2022-09-05T02:45:00.090Z,72.56469727
2022-09-05T02:45:01.048Z,72.56469727
2022-09-05T02:45:07.126Z,72.06420898
2022-09-05T02:45:10.558Z,72.16796875
2022-09-05T02:45:12.796Z,71.86279297
2022-09-05T02:45:20.600Z,72.16796875
2022-09-05T02:45:24.033Z,71.96655273
2022-09-05T02:46:05.960Z,71.76513672
2022-09-05T02:47:07.023Z,71.66137695
2022-09-05T02:48:14.823Z,71.26464844
2022-09-05T02:49:14.012Z,71.46606445
2022-09-05T02:52:29.194Z,71.5637207
2022-09-05T02:56:53.171Z,71.5637207
2022-09-05T02:57:27.197Z,71.5637207
2022-09-05T02:57:34.740Z,71.66137695
2022-09-05T02:57:35.918Z,71.26464844
2022-09-05T02:57:36.695Z,71.46606445
2022-09-05T02:57:37.802Z,71.5637207
2022-09-05T02:57:37.963Z,71.46606445
2022-09-05T02:58:12.661Z,71.76513672
2022-09-05T02:59:12.953Z,71.86279297
2022-09-05T03:00:13.424Z,71.86279297
2022-09-05T03:01:13.860Z,71.76513672
2022-09-05T03:02:26.170Z,71.66137695
2022-09-05T03:03:14.816Z,71.76513672
2022-09-05T03:04:15.095Z,71.76513672
2022-09-05T03:05:15.510Z,71.66137695
2022-09-05T03:06:16.446Z,71.66137695
2022-09-05T03:07:16.902Z,71.76513672
2022-09-05T03:08:17.969Z,71.66137695
2022-09-05T03:09:18.416Z,71.46606445
2022-09-05T03:10:18.848Z,71.46606445
2022-09-05T03:11:19.254Z,71.5637207
2022-09-05T03:12:28.533Z,71.66137695
2022-09-05T03:13:20.203Z,71.66137695
2022-09-05T03:14:20.619Z,71.76513672
2022-09-05T03:15:23.266Z,71.86279297
2022-09-05T03:16:21.451Z,71.86279297
2022-09-05T03:17:21.888Z,71.96655273
2022-09-05T03:18:22.421Z,72.06420898
2022-09-05T03:19:22.842Z,72.06420898
2022-09-05T03:20:23.287Z,72.36938477
2022-09-05T03:21:23.659Z,72.36938477
2022-09-05T03:22:24.084Z,72.265625
2022-09-05T03:23:24.555Z,72.16796875
2022-09-05T03:24:25.006Z,72.265625
2022-09-05T03:25:25.483Z,72.265625
2022-09-05T03:26:25.911Z,72.16796875
2022-09-05T03:27:29.331Z,72.16796875
2022-09-05T03:28:27.569Z,72.39990234
2022-09-05T03:29:28.765Z,72.50366211
2022-09-05T03:30:29.364Z,72.60131836
2022-09-05T03:31:29.765Z,72.39990234
2022-09-05T03:32:30.063Z,72.50366211
2022-09-05T03:34:01.788Z,72.60131836
2022-09-05T03:35:08.192Z,72.36938477
2022-09-05T03:36:02.746Z,72.66845703
2022-09-05T03:37:03.019Z,72.36938477
2022-09-05T03:38:03.443Z,72.36938477
2022-09-05T03:39:03.901Z,72.46704102
2022-09-05T03:40:16.279Z,72.46704102
2022-09-05T03:41:04.841Z,72.56469727
2022-09-05T03:42:05.218Z,72.56469727
2022-09-05T03:43:06.243Z,72.70507813
2022-09-05T03:44:06.701Z,72.80273438
2022-09-05T03:45:07.131Z,72.86987305
2022-09-05T03:46:07.673Z,72.9675293
2022-09-05T03:47:08.001Z,72.86987305
2022-09-05T03:48:23.080Z,72.86987305
2022-09-05T03:49:36.785Z,73.16894531
2022-09-05T03:53:18.015Z,73.27270508
2022-09-05T03:57:06.564Z,72.9675293
2022-09-05T03:57:10.995Z,72.76611328
2022-09-05T03:57:11.253Z,73.07128906
2022-09-05T03:57:12.086Z,73.46801758
2022-09-05T03:57:13.963Z,72.66845703
2022-09-05T03:57:28.306Z,72.86987305
2022-09-05T03:58:16.734Z,72.9675293
2022-09-05T03:59:15.112Z,72.9675293
2022-09-05T04:00:15.558Z,73.16894531
2022-09-05T04:02:10.240Z,73.16894531
2022-09-05T04:06:44.191Z,73.27270508
2022-09-05T04:08:08.888Z,73.16894531
2022-09-05T04:08:17.042Z,72.86987305
2022-09-05T04:08:19.484Z,72.9675293
2022-09-05T04:08:24.461Z,72.76611328
2022-09-05T04:08:24.511Z,72.76611328
2022-09-05T04:08:30.726Z,72.36938477
2022-09-05T04:09:37.240Z,72.36938477
2022-09-05T04:10:20.731Z,72.33276367
2022-09-05T04:11:21.100Z,72.03369141
2022-09-05T04:12:22.465Z,71.83227539
2022-09-05T04:13:22.875Z,71.83227539
2022-09-05T04:14:23.338Z,71.63085938
2022-09-05T04:15:23.824Z,71.72851563
2022-09-05T04:16:24.336Z,71.63085938
2022-09-05T04:17:25.257Z,71.76513672
2022-09-05T04:18:33.523Z,71.86279297
2022-09-05T04:19:26.083Z,72.06420898
2022-09-05T04:20:26.559Z,72.16796875
2022-09-05T04:21:26.994Z,72.16796875
2022-09-05T04:22:27.385Z,72.265625
2022-09-05T04:23:27.799Z,72.36938477
2022-09-05T04:24:28.203Z,72.36938477
2022-09-05T04:25:29.314Z,72.36938477
2022-09-05T04:26:29.753Z,72.36938477
2022-09-05T04:27:31.259Z,72.06420898
2022-09-05T04:29:01.882Z,72.16796875
2022-09-05T04:30:04.961Z,72.36938477
2022-09-05T04:31:02.776Z,72.56469727
2022-09-05T04:32:17.645Z,72.46704102
2022-09-05T04:33:04.265Z,72.56469727
2022-09-05T04:34:04.673Z,72.56469727
2022-09-05T04:35:05.091Z,72.66845703
2022-09-05T04:36:06.873Z,72.76611328
2022-09-05T04:37:05.989Z,72.76611328
2022-09-05T04:38:06.356Z,72.86987305
2022-09-05T04:39:06.775Z,72.9675293
2022-09-05T04:40:07.272Z,73.07128906
2022-09-05T04:41:07.619Z,73.07128906
2022-09-05T04:42:08.029Z,73.13232422
2022-09-05T04:43:08.445Z,73.23608398
2022-09-05T04:44:08.876Z,73.33374023
2022-09-05T04:45:09.302Z,73.53515625
2022-09-05T04:46:09.728Z,73.63891602
2022-09-05T04:47:10.940Z,73.63891602
2022-09-05T04:48:11.554Z,73.73657227
2022-09-05T04:49:12.018Z,74.03564453
2022-09-05T04:50:12.454Z,74.23706055
2022-09-05T04:51:13.767Z,74.1394043
2022-09-05T04:52:16.291Z,74.23706055
2022-09-05T04:53:14.665Z,74.23706055
2022-09-05T04:54:15.089Z,74.23706055
2022-09-05T04:55:15.496Z,74.23706055
2022-09-05T04:56:15.901Z,74.03564453
2022-09-05T04:57:16.327Z,73.53515625
2022-09-05T04:58:17.486Z,73.63891602
2022-09-05T05:00:57.686Z,73.73657227
2022-09-05T05:01:46.070Z,73.84033203
2022-09-05T05:06:00.330Z,74.03564453
2022-09-05T05:06:09.581Z,74.43847656
2022-09-05T05:06:12.747Z,74.73754883
2022-09-05T05:06:17.344Z,74.54223633
2022-09-05T05:06:19.104Z,74.34082031
2022-09-05T05:06:29.189Z,75.24414063
2022-09-05T05:07:22.001Z,75.44555664
2022-09-05T05:08:27.953Z,75.04272461
2022-09-05T05:09:22.673Z,74.34082031
2022-09-05T05:12:04.192Z,74.34082031
2022-09-05T05:17:40.368Z,74.73754883
2022-09-05T05:17:49.301Z,74.54223633
2022-09-05T05:18:02.176Z,74.43847656
2022-09-05T05:18:06.877Z,74.17602539
2022-09-05T05:18:10.545Z,74.27368164
2022-09-05T05:18:11.991Z,74.47509766
2022-09-05T05:18:15.971Z,74.37133789
2022-09-05T05:18:39.824Z,74.47509766
2022-09-05T05:19:27.656Z,74.37133789
2022-09-05T05:20:42.289Z,74.47509766
2022-09-05T05:21:29.027Z,74.67651367
2022-09-05T05:22:29.946Z,74.97558594
2022-09-05T05:24:00.588Z,75.0793457
2022-09-05T05:25:01.042Z,74.97558594
2022-09-05T05:26:01.460Z,74.97558594
2022-09-05T05:27:01.844Z,74.84130859
2022-09-05T05:28:02.989Z,74.93896484
2022-09-05T05:29:03.423Z,75.04272461
2022-09-05T05:30:03.851Z,75.14038086
2022-09-05T05:31:04.287Z,75.04272461
2022-09-05T05:32:04.708Z,75.14038086
2022-09-05T05:33:05.253Z,75.24414063
2022-09-05T05:34:16.200Z,75.34179688
2022-09-05T05:35:06.006Z,75.54321289
2022-09-05T05:36:06.500Z,75.54321289
2022-09-05T05:37:06.940Z,75.94604492
2022-09-05T05:38:07.984Z,75.84228516
2022-09-05T05:39:08.367Z,75.70800781
2022-09-05T05:40:08.908Z,75.64086914
2022-09-05T05:41:09.192Z,75.54321289
2022-09-05T05:42:20.038Z,75.34179688
2022-09-05T05:43:10.018Z,75.44555664
2022-09-05T05:44:10.412Z,75.34179688
2022-09-05T05:45:10.922Z,75.04272461
2022-09-05T05:46:11.612Z,75.14038086
2022-09-05T05:47:11.998Z,75.34179688
2022-09-05T05:48:13.045Z,75.44555664
2022-09-05T05:49:13.406Z,75.44555664
2022-09-05T05:50:13.854Z,75.24414063
2022-09-05T05:51:14.240Z,75.34179688
2022-09-05T05:52:14.699Z,75.87890625
2022-09-05T05:53:33.458Z,76.17797852
2022-09-05T05:54:15.559Z,76.37939453
2022-09-05T05:55:50.701Z,76.58081055
2022-09-05T05:56:16.454Z,76.28173828
2022-09-05T05:57:16.884Z,76.28173828
2022-09-05T05:58:18.012Z,76.28173828
2022-09-05T05:59:22.511Z,76.72119141
2022-09-05T06:00:27.435Z,76.72119141
2022-09-05T06:01:38.450Z,76.92260742
2022-09-05T06:02:19.773Z,77.02026367
2022-09-05T06:03:26.929Z,76.78222656
2022-09-05T06:04:20.435Z,76.4831543
2022-09-05T06:05:20.887Z,76.4831543
2022-09-05T06:06:21.323Z,76.4831543
2022-09-05T06:07:21.793Z,76.4831543
2022-09-05T06:10:00.432Z,76.4831543
2022-09-05T06:14:33.219Z,76.28173828
2022-09-05T06:14:49.156Z,75.78125
2022-09-05T06:14:58.874Z,75.84228516
2022-09-05T06:15:00.313Z,75.67749023
2022-09-05T06:15:02.191Z,75.84228516
2022-09-05T06:15:02.502Z,75.84228516
2022-09-05T06:15:27.735Z,75.74462891
2022-09-05T06:16:27.345Z,75.14038086
2022-09-05T06:17:28.384Z,74.84130859
2022-09-05T06:18:59.549Z,74.73754883
2022-09-05T06:22:00.572Z,74.43847656
2022-09-05T06:22:07.728Z,74.23706055
2022-09-05T06:22:11.512Z,74.43847656
2022-09-05T06:23:01.363Z,74.63989258
2022-09-05T06:24:01.815Z,74.43847656
2022-09-05T06:25:17.138Z,74.34082031
2022-09-05T06:26:03.185Z,74.63989258
2022-09-05T06:27:03.662Z,74.63989258
2022-09-05T06:28:18.934Z,74.60327148
2022-09-05T06:29:05.277Z,74.50561523
2022-09-05T06:30:05.637Z,74.30419922
2022-09-05T06:31:24.610Z,74.30419922
2022-09-05T06:32:06.630Z,74.40185547
2022-09-05T06:33:07.015Z,74.30419922
2022-09-05T06:34:07.485Z,74.1394043
2022-09-05T06:35:08.780Z,74.43847656
2022-09-05T06:36:09.184Z,74.54223633
2022-09-05T06:37:09.591Z,74.84130859
2022-09-05T06:38:10.796Z,74.70703125
2022-09-05T06:39:46.567Z,74.20043945
2022-09-05T06:41:12.002Z,74.20043945
2022-09-05T06:42:40.672Z,74.40185547
2022-09-05T06:43:12.909Z,74.8046875
2022-09-05T06:44:13.375Z,75.10375977
2022-09-05T06:45:28.119Z,75.60424805
2022-09-05T06:46:15.662Z,76.00708008
2022-09-05T06:47:23.963Z,75.70800781
2022-09-05T06:48:24.919Z,75.37231445
2022-09-05T06:49:30.091Z,75.26855469
2022-09-05T06:50:23.965Z,75.26855469
2022-09-05T06:51:17.604Z,75.26855469
2022-09-05T06:52:29.616Z,75.26855469
2022-09-05T06:53:19.911Z,75.17089844
2022-09-05T06:54:18.922Z,75.26855469
2022-09-05T06:55:20.321Z,75.06713867
2022-09-05T06:56:25.483Z,75.06713867
2022-09-05T06:57:21.158Z,75.26855469
2022-09-05T06:58:22.553Z,75.57373047
2022-09-05T06:59:23.796Z,75.57373047
2022-09-05T07:00:24.273Z,75.4699707
2022-09-05T07:01:24.769Z,75.4699707
2022-09-05T07:02:58.456Z,75.76904297
2022-09-05T07:03:25.856Z,75.97045898
2022-09-05T07:05:23.153Z,75.73852539
2022-09-05T07:05:39.728Z,75.4699707
2022-09-05T07:06:40.046Z,75.23193359
2022-09-05T07:07:27.611Z,75.03662109
2022-09-05T07:08:36.418Z,74.83520508
2022-09-05T07:09:59.019Z,74.53613281
2022-09-05T07:11:02.940Z,74.13330078
2022-09-05T07:11:59.863Z,74.13330078
2022-09-05T07:13:00.303Z,73.83422852
2022-09-05T07:14:00.705Z,73.83422852
2022-09-05T07:15:02.194Z,74.13330078
2022-09-05T07:16:01.786Z,74.43237305
2022-09-05T07:17:02.051Z,74.53613281
2022-09-05T07:18:10.111Z,74.73144531
2022-09-05T07:19:03.511Z,74.53613281
2022-09-05T07:20:03.975Z,74.63378906
2022-09-05T07:21:16.257Z,74.83520508
2022-09-05T07:22:04.805Z,75.03662109
2022-09-05T07:23:38.351Z,75.13427734
2022-09-05T07:24:10.142Z,75.03662109
2022-09-05T07:25:06.708Z,75.03662109
2022-09-05T07:26:07.142Z,75.23193359
2022-09-05T07:27:08.998Z,75.13427734
2022-09-05T07:28:26.423Z,75.23193359
2022-09-05T07:29:09.895Z,75.03662109
2022-09-05T07:30:09.513Z,74.93286133
2022-09-05T07:31:10.025Z,74.93286133
2022-09-05T07:32:10.446Z,74.83520508
2022-09-05T07:33:10.812Z,74.63378906
2022-09-05T07:34:41.455Z,74.53613281
2022-09-05T07:36:12.111Z,74.39575195
2022-09-05T07:37:15.699Z,73.99902344
2022-09-05T07:38:12.910Z,73.79760742
2022-09-05T07:39:28.159Z,73.69995117
2022-09-05T07:40:25.378Z,73.6328125
2022-09-05T07:41:14.337Z,73.52905273
2022-09-05T07:42:14.712Z,73.73046875
2022-09-05T07:43:25.787Z,73.73046875
2022-09-05T07:44:15.623Z,73.93188477
2022-09-05T07:45:16.057Z,74.02954102
2022-09-05T07:46:16.581Z,73.83422852
2022-09-05T07:47:16.914Z,73.83422852
2022-09-05T07:48:17.364Z,73.79760742
2022-09-05T07:49:17.832Z,73.99902344
2022-09-05T07:52:54.982Z,74.3347168
2022-09-05T07:56:47.763Z,72.79663086
2022-09-05T07:56:49.778Z,73.79760742
2022-09-05T07:56:51.515Z,72.49755859
2022-09-05T07:56:55.882Z,73.09570313
2022-09-05T07:56:59.015Z,72.59521484
2022-09-05T07:57:06.158Z,72.49755859
2022-09-05T07:57:29.126Z,72.59521484
2022-09-05T07:58:22.523Z,72.49755859
2022-09-05T07:59:22.929Z,72.69287109
2022-09-05T08:00:26.728Z,72.89428711
2022-09-05T08:01:23.989Z,72.69287109
2022-09-05T08:02:24.268Z,72.29614258
2022-09-05T08:03:24.780Z,72.29614258
2022-09-05T08:04:25.182Z,73.89526367
2022-09-05T08:05:29.455Z,74.2980957
2022-09-05T08:07:24.242Z,75
2022-09-05T08:07:57.987Z,74.70092773
2022-09-05T08:09:21.591Z,74.59716797
2022-09-05T08:10:06.857Z,74.73144531
2022-09-05T08:11:25.021Z,74.83520508
2022-09-05T08:12:02.787Z,74.73144531
2022-09-05T08:13:33.964Z,74.73144531
2022-09-05T08:14:35.461Z,74.63378906
2022-09-05T08:15:01.846Z,74.3347168
2022-09-05T08:16:13.076Z,74.3347168
2022-09-05T08:17:02.887Z,74.43237305
2022-09-05T08:18:03.208Z,74.63378906
2022-09-05T08:19:03.621Z,74.83520508
2022-09-05T08:20:08.515Z,75.03662109
2022-09-05T08:21:04.527Z,74.93286133
2022-09-05T08:22:04.995Z,74.93286133
2022-09-05T08:23:05.385Z,75.03662109
2022-09-05T08:24:12.968Z,75.13427734
2022-09-05T08:25:06.341Z,75.23193359
2022-09-05T08:26:07.534Z,75.03662109
2022-09-05T08:27:10.105Z,74.49951172
2022-09-05T08:28:08.472Z,73.29711914
2022-09-05T08:29:09.555Z,73.19335938
2022-09-05T08:30:26.727Z,73.39477539
2022-09-05T08:31:10.572Z,72.99804688
2022-09-05T08:32:10.930Z,72.79663086
2022-09-05T08:33:11.952Z,72.79663086
2022-09-05T08:34:12.830Z,72.89428711
2022-09-05T08:35:13.270Z,72.79663086
2022-09-05T08:36:13.752Z,72.69287109
2022-09-05T08:37:15.151Z,72.69287109
2022-09-05T08:38:15.295Z,72.69287109
2022-09-05T08:39:15.716Z,72.69287109
2022-09-05T08:40:16.298Z,72.76000977
2022-09-05T08:41:16.668Z,72.96142578
2022-09-05T08:42:17.150Z,72.55859375
2022-09-05T08:46:36.373Z,71.96044922
2022-09-05T08:46:39.703Z,71.86279297
2022-09-05T08:46:41.611Z,72.05810547
2022-09-05T08:46:44.401Z,71.96044922
2022-09-05T08:47:21.104Z,71.96044922
2022-09-05T08:48:21.446Z,71.86279297
2022-09-05T08:49:32.450Z,71.66137695
2022-09-05T08:50:26.989Z,71.86279297
2022-09-05T08:51:23.445Z,71.82617188
2022-09-05T08:52:23.930Z,71.92382813
2022-09-05T08:53:28.151Z,72.12524414
2022-09-05T08:54:25.394Z,71.92382813
2022-09-05T08:55:25.879Z,71.92382813
2022-09-05T08:56:26.336Z,71.92382813
2022-09-05T08:57:57.424Z,72.02758789
2022-09-05T08:59:31.826Z,72.12524414
2022-09-05T09:00:19.836Z,71.89331055
2022-09-05T09:01:03.543Z,71.49047852
2022-09-05T09:02:44.636Z,71.39282227
2022-09-05T09:03:04.343Z,70.79467773
2022-09-05T09:04:00.813Z,70.79467773
2022-09-05T09:05:03.031Z,70.19042969
2022-09-05T09:06:14.879Z,69.49462891
2022-09-05T09:07:36.751Z,69.49462891
2022-09-05T09:08:03.362Z,69.49462891
2022-09-05T09:09:05.827Z,68.38989258
2022-09-05T09:10:04.889Z,68.19458008
2022-09-05T09:11:05.329Z,68.359375
2022-09-05T09:12:05.743Z,68.65844727
2022-09-05T09:13:06.196Z,68.359375
2022-09-05T09:14:07.308Z,68.45703125
2022-09-05T09:15:07.773Z,67.85888672
2022-09-05T09:16:08.238Z,68.06030273
2022-09-05T09:17:08.780Z,68.06030273
2022-09-05T09:18:10.143Z,68.26171875
2022-09-05T09:19:10.316Z,68.26171875
2022-09-05T09:20:10.776Z,67.96264648
2022-09-05T09:21:11.478Z,67.55981445
2022-09-05T09:22:11.937Z,67.26074219
2022-09-05T09:23:31.838Z,67.35839844
2022-09-05T09:24:12.811Z,67.23022461
2022-09-05T09:25:15.734Z,67.23022461
2022-09-05T09:26:13.746Z,67.23022461
2022-09-05T09:27:14.213Z,66.22924805
2022-09-05T09:28:48.344Z,66.43066406
2022-09-05T09:29:15.828Z,66.72973633
2022-09-05T09:30:16.282Z,66.52832031
2022-09-05T09:31:16.846Z,66.3269043
2022-09-05T09:32:17.405Z,66.62597656
2022-09-05T09:33:18.357Z,66.62597656
2022-09-05T09:34:18.807Z,66.62597656
2022-09-05T09:35:20.097Z,66.93115234
2022-09-05T09:36:19.667Z,64.92919922
2022-09-05T09:37:20.145Z,65.19775391
2022-09-05T09:38:21.393Z,64.89868164
2022-09-05T09:39:38.946Z,65.69824219
2022-09-05T09:40:22.873Z,65.99731445
2022-09-05T09:41:23.283Z,66.19873047
2022-09-05T09:42:33.327Z,66.0949707
2022-09-05T09:43:24.147Z,65.8996582
2022-09-05T09:44:24.501Z,66.0949707
2022-09-05T09:45:29.043Z,65.79589844
2022-09-05T09:46:25.463Z,65.99731445
2022-09-05T09:47:25.974Z,64.09912109
2022-09-05T09:48:56.708Z,64.09912109
2022-09-05T09:49:58.019Z,63.87329102
2022-09-05T09:51:00.523Z,63.50097656
2022-09-05T09:51:59.532Z,63.17138672
2022-09-05T09:52:59.955Z,63.37280273
2022-09-05T09:54:00.385Z,63.56811523
2022-09-05T09:55:00.786Z,63.671875
2022-09-05T09:56:02.766Z,62.87231445
2022-09-05T09:57:01.630Z,62.87231445
2022-09-05T09:58:02.025Z,62.67089844
2022-09-05T09:59:03.357Z,62.47558594
2022-09-05T10:00:03.721Z,62.87231445
2022-09-05T10:01:04.164Z,62.67089844
2022-09-05T10:02:38.186Z,59.27734375
2022-09-05T10:08:12.246Z,60.77880859
2022-09-05T10:10:02.991Z,61.17553711
2022-09-05T10:10:10.129Z,57.75756836
2022-09-05T10:10:34.261Z,59.77783203
2022-09-05T10:10:45.323Z,58.25195313
2022-09-05T10:10:53.747Z,57.95288086
2022-09-05T10:10:56.163Z,58.55102539
2022-09-05T10:10:57.450Z,58.55102539
2022-09-05T10:11:37.572Z,57.95288086
2022-09-05T10:12:11.035Z,58.45336914
2022-09-05T10:13:11.508Z,59.14916992
2022-09-05T10:14:35.429Z,59.25292969
2022-09-05T10:15:30.910Z,59.55200195
2022-09-05T10:16:12.880Z,59.6496582
2022-09-05T10:17:13.165Z,60.65063477
2022-09-05T10:18:13.553Z,61.54785156
2022-09-05T10:19:13.991Z,62.34130859
2022-09-05T10:20:15.100Z,62.34130859
2022-09-05T10:21:17.768Z,62.60986328
2022-09-05T10:22:37.917Z,62.41455078
2022-09-05T10:23:16.353Z,62.41455078
2022-09-05T10:24:16.750Z,62.21313477
2022-09-05T10:25:19.197Z,61.41357422
2022-09-05T10:26:18.283Z,61.31591797
2022-09-05T10:27:18.703Z,60.62011719
2022-09-05T10:28:19.130Z,60.71777344
2022-09-05T10:29:38.071Z,60.49194336
2022-09-05T10:30:25.312Z,60.49194336
2022-09-05T10:32:31.286Z,59.89379883
2022-09-05T10:34:39.464Z,58.99658203
2022-09-05T10:35:13.750Z,59.09423828
2022-09-05T10:35:17.074Z,59.4909668
2022-09-05T10:35:24.080Z,58.79516602
2022-09-05T10:36:23.434Z,58.19702148
2022-09-05T10:37:23.660Z,57.89794922
2022-09-05T10:38:24.060Z,57.5012207
2022-09-05T10:39:25.081Z,58.3984375
2022-09-05T10:41:20.447Z,58.29467773
2022-09-05T10:42:01.356Z,58.09936523
2022-09-05T10:43:00.916Z,57.10449219
2022-09-05T10:43:58.049Z,57.6965332
2022-09-05T10:44:59.388Z,58.36791992
2022-09-05T10:45:59.889Z,58.8684082
2022-09-05T10:47:00.229Z,58.06884766
2022-09-05T10:48:13.050Z,57.87353516
2022-09-05T10:49:01.015Z,58.47167969
2022-09-05T10:50:01.415Z,58.8684082
2022-09-05T10:51:01.824Z,57.27539063
2022-09-05T10:52:18.133Z,58.27026367
2022-09-05T10:53:02.610Z,59.16748047
2022-09-05T10:54:03.037Z,59.36279297
2022-09-05T10:55:16.190Z,58.8684082
2022-09-05T10:56:03.886Z,58.53881836
2022-09-05T10:57:04.236Z,57.94067383
2022-09-05T10:58:04.699Z,57.34863281
2022-09-05T11:02:18.608Z,57.94067383
2022-09-05T11:02:19.845Z,58.23974609
2022-09-05T11:02:30.417Z,58.23974609
2022-09-05T11:02:30.482Z,58.14208984
2022-09-05T11:03:22.613Z,58.04443359
2022-09-05T11:04:08.145Z,58.04443359
2022-09-05T11:05:08.544Z,58.64257813